Time;durP1;ratioP1;P1;durP2;ratioP2;P2;SDS_P1;SDS_P2;PMS_P1;PMS_P2;Temp;Humidity;BMP_temperature;BMP_pressure;BME280_temperature;BME280_humidity;BME280_pressure;Samples;Min_cycle;Max_cycle;Signal;HPM_P1;HPM_P2
2021/08/07 00:02:00;;;;;;;;;;;18.40;99.90;;;;;;5070601;28;19919;-87
2021/08/07 00:04:26;;;;;;;;;;;18.40;99.90;;;;;;5071968;28;19908;-87
2021/08/07 00:06:52;;;;;;;;;;;18.40;99.90;;;;;;5072032;28;20337;-87
2021/08/07 00:09:17;;;;;;;;;;;18.30;99.90;;;;;;5090902;28;19934;-88
2021/08/07 00:11:43;;;;;;;;;;;18.30;99.90;;;;;;5074293;28;19909;-87
2021/08/07 00:14:08;;;;;;;;;;;18.30;99.90;;;;;;5074123;28;19957;-87
2021/08/07 00:16:34;;;;;;;;;;;18.30;99.90;;;;;;5091238;28;19999;-87
2021/08/07 00:18:59;;;;;;;;;;;18.30;99.90;;;;;;5073893;28;19966;-87
2021/08/07 00:21:25;;;;;;;;;;;18.30;99.90;;;;;;5074517;28;20285;-87
2021/08/07 00:23:50;;;;;;;;;;;18.30;99.90;;;;;;5075606;28;19993;-87
2021/08/07 00:26:16;;;;;;;;;;;18.30;99.90;;;;;;5073936;28;19908;-87
2021/08/07 00:28:41;;;;;;;;;;;18.30;99.90;;;;;;5090818;28;19912;-86
2021/08/07 00:31:07;;;;;;;;;;;18.30;99.90;;;;;;5073384;28;19916;-87
2021/08/07 00:33:32;;;;;;;;;;;18.30;99.90;;;;;;5073924;28;19909;-87
2021/08/07 00:35:58;;;;;;;;;;;18.20;99.90;;;;;;5075096;28;19912;-87
2021/08/07 00:38:23;;;;;;;;;;;18.20;99.90;;;;;;5073800;28;20361;-87
2021/08/07 00:40:49;;;;;;;;;;;18.30;99.90;;;;;;5073451;28;19916;-87
2021/08/07 00:43:15;;;;;;;;;;;18.30;99.90;;;;;;5073675;28;20381;-87
2021/08/07 00:45:40;;;;;;;;;;;18.20;99.90;;;;;;5074972;28;20010;-88
2021/08/07 00:48:07;;;;;;;;;;;18.30;99.90;;;;;;5074956;28;19912;-87
2021/08/07 00:50:32;;;;;;;;;;;18.20;99.90;;;;;;5073130;28;19908;-87
2021/08/07 00:52:58;;;;;;;;;;;18.20;99.90;;;;;;5073729;28;20430;-87
2021/08/07 00:55:24;;;;;;;;;;;18.20;99.90;;;;;;5073463;28;19967;-87
2021/08/07 00:57:49;;;;;;;;;;;18.20;99.90;;;;;;5074602;28;19965;-87
2021/08/07 01:00:15;;;;;;;;;;;18.20;99.90;;;;;;5072920;28;20269;-87
2021/08/07 01:02:42;;;;;;;;;;;18.20;99.90;;;;;;5090280;28;19997;-87
2021/08/07 01:05:09;;;;;;;;;;;18.20;99.90;;;;;;5073446;28;19910;-87
2021/08/07 01:07:47;;;;;;;;;;;18.20;99.90;;;;;;5073265;28;19915;-86
2021/08/07 01:10:26;;;;;;;;;;;18.20;99.90;;;;;;5072732;28;19908;-87
2021/08/07 01:13:00;;;;;;;;;;;18.20;99.90;;;;;;5074424;28;19915;-87
2021/08/07 01:15:27;;;;;;;;;;;18.20;99.90;;;;;;5090131;28;20284;-87
2021/08/07 01:17:53;;;;;;;;;;;18.20;99.90;;;;;;5072931;28;19917;-87
2021/08/07 01:20:25;;;;;;;;;;;18.20;99.90;;;;;;5089537;28;20012;-87
2021/08/07 01:22:53;;;;;;;;;;;18.20;99.90;;;;;;5072866;28;19913;-87
2021/08/07 01:25:19;;;;;;;;;;;18.10;99.90;;;;;;5073057;28;19912;-86
2021/08/07 01:27:45;;;;;;;;;;;18.10;99.90;;;;;;5072983;28;19958;-87
2021/08/07 01:30:12;;;;;;;;;;;18.20;99.90;;;;;;5073669;28;19922;-87
2021/08/07 01:32:38;;;;;;;;;;;18.20;99.90;;;;;;5073917;28;20343;-87
2021/08/07 01:35:05;;;;;;;;;;;18.20;99.90;;;;;;5072670;28;19922;-87
2021/08/07 01:37:31;;;;;;;;;;;18.10;99.90;;;;;;5073962;28;19987;-87
2021/08/07 01:39:57;;;;;;;;;;;18.10;99.90;;;;;;5089273;28;20349;-87
2021/08/07 01:42:23;;;;;;;;;;;18.10;99.90;;;;;;5072724;28;19953;-87
2021/08/07 01:44:49;;;;;;;;;;;18.00;99.90;;;;;;5073828;28;19912;-87
2021/08/07 01:47:27;;;;;;;;;;;18.00;99.90;;;;;;5072437;28;19919;-87
2021/08/07 01:50:25;;;;;;;;;;;18.00;99.90;;;;;;5073208;28;19908;-87
2021/08/07 01:52:52;;;;;;;;;;;18.00;99.90;;;;;;5049801;28;19908;-86
2021/08/07 01:55:22;;;;;;;;;;;18.00;99.90;;;;;;5073513;28;20258;-86
2021/08/07 01:57:55;;;;;;;;;;;18.00;99.90;;;;;;5072446;28;19908;-87
2021/08/07 02:00:21;;;;;;;;;;;18.00;99.90;;;;;;5071879;28;19913;-87
2021/08/07 02:02:47;;;;;;;;;;;18.00;99.90;;;;;;5073442;28;19909;-87
2021/08/07 02:05:12;;;;;;;;;;;18.00;99.90;;;;;;5089047;28;19954;-87
2021/08/07 02:07:38;;;;;;;;;;;18.00;99.90;;;;;;5072119;28;19912;-87
2021/08/07 02:10:04;;;;;;;;;;;17.90;99.90;;;;;;5071716;28;20286;-87
2021/08/07 02:12:30;;;;;;;;;;;17.90;99.90;;;;;;5088977;28;19995;-87
2021/08/07 02:14:57;;;;;;;;;;;18.00;99.90;;;;;;5071808;28;20007;-86
2021/08/07 02:17:23;;;;;;;;;;;17.90;99.90;;;;;;5072360;28;19936;-87
2021/08/07 02:19:49;;;;;;;;;;;17.90;99.90;;;;;;5070453;28;19913;-87
2021/08/07 02:22:17;;;;;;;;;;;17.90;99.90;;;;;;5071680;28;19913;-87
2021/08/07 02:24:43;;;;;;;;;;;17.90;99.90;;;;;;5071872;28;19908;-87
2021/08/07 02:27:08;;;;;;;;;;;17.80;99.90;;;;;;5071565;28;20194;-87
2021/08/07 02:29:34;;;;;;;;;;;17.80;99.90;;;;;;5071022;28;19956;-87
2021/08/07 02:32:01;;;;;;;;;;;17.80;99.90;;;;;;5088247;28;19913;-87
2021/08/07 02:34:27;;;;;;;;;;;17.80;99.90;;;;;;5072823;28;19912;-87
2021/08/07 02:36:53;;;;;;;;;;;17.80;99.90;;;;;;5072960;28;19997;-87
2021/08/07 02:39:19;;;;;;;;;;;17.80;99.90;;;;;;5070938;28;19909;-87
2021/08/07 02:41:45;;;;;;;;;;;17.80;99.90;;;;;;5088481;28;20266;-87
2021/08/07 02:44:11;;;;;;;;;;;17.80;99.90;;;;;;5071535;28;20404;-87
2021/08/07 02:46:38;;;;;;;;;;;17.70;99.90;;;;;;5072897;28;19943;-87
2021/08/07 02:49:04;;;;;;;;;;;17.70;99.90;;;;;;5071114;28;19915;-87
2021/08/07 02:51:29;;;;;;;;;;;17.70;99.90;;;;;;5071423;28;19913;-87
2021/08/07 02:53:55;;;;;;;;;;;17.70;99.90;;;;;;5072658;28;19950;-87
2021/08/07 02:56:21;;;;;;;;;;;17.60;99.90;;;;;;5088132;28;19912;-87
2021/08/07 02:58:47;;;;;;;;;;;17.60;99.90;;;;;;5071153;28;19952;-87
2021/08/07 03:01:12;;;;;;;;;;;17.70;99.90;;;;;;5071011;28;19909;-87
2021/08/07 03:03:38;;;;;;;;;;;17.70;99.90;;;;;;5072527;28;19908;-87
2021/08/07 03:06:03;;;;;;;;;;;17.70;99.90;;;;;;5071374;28;19908;-87
2021/08/07 03:08:29;;;;;;;;;;;17.60;99.90;;;;;;5072436;28;20229;-87
2021/08/07 03:10:54;;;;;;;;;;;17.60;99.90;;;;;;5070664;28;19909;-87
2021/08/07 03:13:20;;;;;;;;;;;17.50;99.90;;;;;;5072439;28;19913;-87
2021/08/07 03:15:45;;;;;;;;;;;17.50;99.90;;;;;;5071108;28;19913;-87
2021/08/07 03:18:11;;;;;;;;;;;17.50;99.90;;;;;;5072390;28;19924;-87
2021/08/07 03:20:37;;;;;;;;;;;17.50;99.90;;;;;;5071805;28;19909;-86
2021/08/07 03:23:04;;;;;;;;;;;17.50;99.90;;;;;;5072430;28;19915;-86
2021/08/07 03:25:30;;;;;;;;;;;17.50;99.90;;;;;;5071026;28;20415;-86
2021/08/07 03:27:56;;;;;;;;;;;17.50;99.90;;;;;;5071087;28;19908;-86
2021/08/07 03:30:22;;;;;;;;;;;17.50;99.90;;;;;;5092341;28;19909;-87
2021/08/07 03:32:48;;;;;;;;;;;17.50;99.90;;;;;;5077078;28;19908;-87
2021/08/07 03:35:13;;;;;;;;;;;17.50;99.90;;;;;;5076557;28;19919;-87
2021/08/07 03:37:39;;;;;;;;;;;17.50;99.90;;;;;;5070971;28;19954;-87
2021/08/07 03:40:05;;;;;;;;;;;17.40;99.90;;;;;;5071809;28;19909;-87
2021/08/07 03:42:30;;;;;;;;;;;17.40;99.90;;;;;;5074841;28;19970;-87
2021/08/07 03:44:56;;;;;;;;;;;17.40;99.90;;;;;;5076261;28;20266;-87
2021/08/07 03:47:22;;;;;;;;;;;17.40;99.90;;;;;;5074921;28;19908;-87
2021/08/07 03:49:47;;;;;;;;;;;17.30;99.90;;;;;;5075529;28;20057;-87
2021/08/07 03:52:13;;;;;;;;;;;17.30;99.90;;;;;;5091751;28;19930;-87
2021/08/07 03:54:38;;;;;;;;;;;17.30;99.90;;;;;;5091623;28;19916;-87
2021/08/07 03:57:04;;;;;;;;;;;17.30;99.90;;;;;;5074570;28;19972;-87
2021/08/07 03:59:29;;;;;;;;;;;17.30;99.90;;;;;;5073940;28;19919;-87
2021/08/07 04:01:55;;;;;;;;;;;17.30;99.90;;;;;;5074377;28;19979;-87
2021/08/07 04:04:20;;;;;;;;;;;17.20;99.90;;;;;;5074575;28;19964;-87
2021/08/07 04:06:45;;;;;;;;;;;17.20;99.90;;;;;;5075769;28;19909;-87
2021/08/07 04:09:13;;;;;;;;;;;17.20;99.90;;;;;;5074144;28;19908;-87
2021/08/07 04:11:38;;;;;;;;;;;17.20;99.90;;;;;;5074335;28;20301;-87
2021/08/07 04:14:04;;;;;;;;;;;17.10;99.90;;;;;;5074546;28;19909;-87
2021/08/07 04:16:29;;;;;;;;;;;17.10;99.90;;;;;;5074384;28;19934;-87
2021/08/07 04:18:55;;;;;;;;;;;17.10;99.90;;;;;;5074748;28;19916;-87
2021/08/07 04:21:20;;;;;;;;;;;17.10;99.90;;;;;;5074185;28;19908;-86
2021/08/07 04:23:46;;;;;;;;;;;17.10;99.90;;;;;;5074291;28;20002;-87
2021/08/07 04:26:11;;;;;;;;;;;17.10;99.90;;;;;;5075240;28;20404;-87
2021/08/07 04:28:37;;;;;;;;;;;17.10;99.90;;;;;;5074109;28;19915;-87
2021/08/07 04:31:05;;;;;;;;;;;17.20;99.90;;;;;;5073431;28;19908;-87
2021/08/07 04:33:33;;;;;;;;;;;17.10;99.90;;;;;;5075227;28;19924;-87
2021/08/07 04:36:00;;;;;;;;;;;17.20;99.90;;;;;;5075390;28;20376;-87
2021/08/07 04:38:25;;;;;;;;;;;17.20;99.90;;;;;;5075086;28;19908;-87
2021/08/07 04:40:51;;;;;;;;;;;17.20;99.90;;;;;;5073387;28;19915;-86
2021/08/07 04:43:16;;;;;;;;;;;17.20;99.90;;;;;;5073813;28;19909;-87
2021/08/07 04:45:42;;;;;;;;;;;17.20;99.90;;;;;;5073921;28;19954;-87
2021/08/07 04:48:07;;;;;;;;;;;17.20;99.90;;;;;;5074914;28;19918;-87
2021/08/07 04:50:34;;;;;;;;;;;17.20;99.90;;;;;;5073071;28;19958;-87
2021/08/07 04:52:59;;;;;;;;;;;17.20;99.90;;;;;;5074302;28;19909;-87
2021/08/07 04:55:25;;;;;;;;;;;17.20;99.90;;;;;;5073508;28;19923;-87
2021/08/07 04:57:51;;;;;;;;;;;17.20;99.90;;;;;;5073414;28;20369;-87
2021/08/07 05:00:17;;;;;;;;;;;17.20;99.90;;;;;;5072994;28;19913;-87
2021/08/07 05:02:45;;;;;;;;;;;17.20;99.90;;;;;;5073351;28;19983;-87
2021/08/07 05:05:12;;;;;;;;;;;17.30;99.90;;;;;;5073376;28;19939;-87
2021/08/07 05:07:37;;;;;;;;;;;17.30;99.90;;;;;;5090182;28;19958;-87
2021/08/07 05:10:04;;;;;;;;;;;17.30;99.90;;;;;;5072841;28;19959;-87
2021/08/07 05:12:30;;;;;;;;;;;17.30;99.90;;;;;;5073213;28;19917;-87
2021/08/07 05:14:56;;;;;;;;;;;17.40;99.90;;;;;;5073232;28;19920;-87
2021/08/07 05:17:22;;;;;;;;;;;17.40;99.90;;;;;;5074267;28;20031;-87
2021/08/07 05:19:48;;;;;;;;;;;17.40;99.90;;;;;;5090107;28;20392;-88
2021/08/07 05:22:13;;;;;;;;;;;17.50;99.90;;;;;;5072930;28;20045;-87
2021/08/07 05:24:39;;;;;;;;;;;17.40;99.90;;;;;;5072955;28;19999;-88
2021/08/07 05:27:04;;;;;;;;;;;17.50;99.90;;;;;;5090050;28;20312;-88
2021/08/07 05:29:30;;;;;;;;;;;17.50;99.90;;;;;;5072735;28;20007;-88
2021/08/07 05:31:55;;;;;;;;;;;17.50;99.90;;;;;;5089620;28;19915;-87
2021/08/07 05:34:21;;;;;;;;;;;17.50;99.90;;;;;;5072579;28;19962;-88
2021/08/07 05:36:46;;;;;;;;;;;17.50;99.90;;;;;;5072738;28;19920;-88
2021/08/07 05:39:12;;;;;;;;;;;17.50;99.90;;;;;;5072124;28;20007;-88
2021/08/07 05:41:37;;;;;;;;;;;17.60;99.90;;;;;;5073828;28;20323;-88
2021/08/07 05:44:03;;;;;;;;;;;17.60;99.90;;;;;;5072546;28;20372;-88
2021/08/07 05:46:28;;;;;;;;;;;17.60;99.90;;;;;;5072515;28;19961;-88
2021/08/07 05:48:56;;;;;;;;;;;17.50;99.90;;;;;;5088645;28;19909;-88
2021/08/07 05:51:21;;;;;;;;;;;17.60;99.90;;;;;;5073572;28;19948;-88
2021/08/07 05:53:47;;;;;;;;;;;17.60;99.90;;;;;;5073627;28;19936;-88
2021/08/07 05:56:12;;;;;;;;;;;17.60;99.90;;;;;;5072217;28;19913;-88
2021/08/07 05:58:38;;;;;;;;;;;17.60;99.90;;;;;;5072166;28;19908;-88
2021/08/07 06:01:06;;;;;;;;;;;17.70;99.90;;;;;;5071897;28;20017;-88
2021/08/07 06:03:32;;;;;;;;;;;17.70;99.90;;;;;;5073421;28;19909;-88
2021/08/07 06:05:58;;;;;;;;;;;17.70;99.90;;;;;;5071197;28;20366;-88
2021/08/07 06:08:23;;;;;;;;;;;17.70;99.90;;;;;;5073300;28;19908;-88
2021/08/07 06:10:49;;;;;;;;;;;17.70;99.90;;;;;;5071415;28;19914;-88
2021/08/07 06:13:14;;;;;;;;;;;17.70;99.90;;;;;;5073392;28;20403;-88
2021/08/07 06:15:40;;;;;;;;;;;17.70;99.90;;;;;;5071981;28;20023;-88
2021/08/07 06:18:05;;;;;;;;;;;17.70;99.90;;;;;;5071742;28;20007;-88
2021/08/07 06:20:31;;;;;;;;;;;17.70;99.90;;;;;;5071289;28;19931;-88
2021/08/07 06:22:56;;;;;;;;;;;17.70;99.90;;;;;;5088469;28;19919;-88
2021/08/07 06:25:22;;;;;;;;;;;17.70;99.90;;;;;;5071771;28;19908;-88
2021/08/07 06:27:53;;;;;;;;;;;17.80;99.90;;;;;;5071755;28;20304;-88
2021/08/07 06:30:19;;;;;;;;;;;17.80;99.90;;;;;;5071675;28;19908;-89
2021/08/07 06:32:44;;;;;;;;;;;17.90;99.90;;;;;;5071853;28;19916;-88
2021/08/07 06:35:10;;;;;;;;;;;17.90;99.90;;;;;;5071412;28;19916;-88
2021/08/07 06:37:35;;;;;;;;;;;17.90;99.90;;;;;;5071574;28;19909;-88
2021/08/07 06:40:01;;;;;;;;;;;17.90;99.90;;;;;;5087935;28;20288;-88
2021/08/07 06:42:26;;;;;;;;;;;17.90;99.90;;;;;;5088314;28;20329;-88
2021/08/07 06:44:52;;;;;;;;;;;18.00;99.90;;;;;;5071485;28;19909;-88
2021/08/07 06:47:17;;;;;;;;;;;18.10;99.90;;;;;;5071350;28;19909;-88
2021/08/07 06:49:43;;;;;;;;;;;18.10;99.90;;;;;;5087682;28;19912;-88
2021/08/07 06:52:08;;;;;;;;;;;18.10;99.90;;;;;;5071261;28;19944;-88
2021/08/07 06:54:34;;;;;;;;;;;18.20;99.90;;;;;;5071348;28;19919;-88
2021/08/07 06:57:00;;;;;;;;;;;18.20;99.90;;;;;;5072659;28;19921;-88
2021/08/07 06:59:25;;;;;;;;;;;18.20;99.90;;;;;;5071965;28;19915;-88
2021/08/07 07:01:51;;;;;;;;;;;18.30;99.90;;;;;;5071328;28;19955;-88
2021/08/07 07:04:17;;;;;;;;;;;18.30;99.90;;;;;;5072458;28;19935;-88
2021/08/07 07:06:43;;;;;;;;;;;18.30;99.90;;;;;;5071594;28;19915;-88
2021/08/07 07:09:09;;;;;;;;;;;18.40;99.90;;;;;;5070583;28;19956;-88
2021/08/07 07:11:37;;;;;;;;;;;18.40;99.90;;;;;;5071278;28;19960;-88
2021/08/07 07:14:03;;;;;;;;;;;18.40;99.90;;;;;;5071190;28;19931;-87
2021/08/07 07:16:30;;;;;;;;;;;18.40;99.90;;;;;;5087685;28;19916;-88
2021/08/07 07:18:56;;;;;;;;;;;18.40;99.90;;;;;;5070420;28;19948;-88
2021/08/07 07:21:21;;;;;;;;;;;18.50;99.90;;;;;;5070847;28;20280;-88
2021/08/07 07:23:47;;;;;;;;;;;18.50;99.90;;;;;;5071030;28;19919;-88
2021/08/07 07:26:12;;;;;;;;;;;18.50;99.90;;;;;;5071108;28;19908;-88
2021/08/07 07:28:38;;;;;;;;;;;18.60;99.90;;;;;;5071023;28;19909;-88
2021/08/07 07:31:03;;;;;;;;;;;18.60;99.90;;;;;;5070452;28;19909;-88
2021/08/07 07:33:29;;;;;;;;;;;18.60;99.90;;;;;;5072028;28;19915;-88
2021/08/07 07:35:54;;;;;;;;;;;18.60;99.90;;;;;;5071001;28;19912;-88
2021/08/07 07:38:20;;;;;;;;;;;18.70;99.90;;;;;;5071035;28;20280;-88
2021/08/07 07:40:46;;;;;;;;;;;18.70;99.90;;;;;;5072153;28;20342;-88
2021/08/07 07:43:13;;;;;;;;;;;18.70;99.90;;;;;;5071328;28;19944;-88
2021/08/07 07:45:39;;;;;;;;;;;18.70;99.90;;;;;;5071264;28;19912;-88
2021/08/07 07:48:04;;;;;;;;;;;18.70;99.90;;;;;;5070739;28;19955;-88
2021/08/07 07:50:30;;;;;;;;;;;18.80;99.90;;;;;;5070247;28;20293;-88
2021/08/07 07:52:55;;;;;;;;;;;18.80;99.90;;;;;;5070704;28;20308;-88
2021/08/07 07:55:21;;;;;;;;;;;18.80;99.90;;;;;;5070696;28;19912;-88
2021/08/07 07:57:46;;;;;;;;;;;18.80;99.90;;;;;;5070735;28;20335;-88
2021/08/07 08:00:12;;;;;;;;;;;18.90;99.90;;;;;;5071519;28;19915;-88
2021/08/07 08:02:38;;;;;;;;;;;18.90;99.90;;;;;;5070624;28;19912;-88
2021/08/07 08:05:03;;;;;;;;;;;18.90;99.90;;;;;;5070753;28;20122;-87
2021/08/07 08:07:29;;;;;;;;;;;19.00;99.90;;;;;;5071861;28;19915;-88
2021/08/07 08:09:54;;;;;;;;;;;19.00;99.90;;;;;;5071322;28;20377;-88
2021/08/07 08:12:20;;;;;;;;;;;19.00;99.90;;;;;;5072107;28;19918;-88
2021/08/07 08:14:45;;;;;;;;;;;19.10;99.90;;;;;;5072048;28;20262;-88
2021/08/07 08:17:11;;;;;;;;;;;19.10;99.90;;;;;;5070312;28;19908;-88
2021/08/07 08:19:37;;;;;;;;;;;19.20;99.90;;;;;;5070186;28;19916;-88
2021/08/07 08:22:03;;;;;;;;;;;19.20;99.90;;;;;;5070632;28;19909;-88
2021/08/07 08:24:29;;;;;;;;;;;19.20;99.90;;;;;;5087558;28;20016;-88
2021/08/07 08:26:54;;;;;;;;;;;19.20;99.90;;;;;;5070722;28;20011;-88
2021/08/07 08:29:20;;;;;;;;;;;19.30;99.90;;;;;;5072285;28;19913;-88
2021/08/07 08:31:45;;;;;;;;;;;19.30;99.90;;;;;;5074366;28;19934;-88
2021/08/07 08:34:11;;;;;;;;;;;19.30;99.90;;;;;;5075147;28;19909;-88
2021/08/07 08:36:36;;;;;;;;;;;19.40;99.90;;;;;;5073907;28;19920;-88
2021/08/07 08:39:02;;;;;;;;;;;19.40;99.90;;;;;;5073643;28;19909;-88
2021/08/07 08:41:32;;;;;;;;;;;19.40;99.90;;;;;;5075433;28;19909;-88
2021/08/07 08:43:58;;;;;;;;;;;19.40;99.90;;;;;;5074961;28;19913;-88
2021/08/07 08:46:24;;;;;;;;;;;19.50;99.90;;;;;;5074895;28;19966;-88
2021/08/07 08:48:49;;;;;;;;;;;19.50;99.90;;;;;;5074803;28;19912;-88
2021/08/07 08:51:15;;;;;;;;;;;19.50;99.50;;;;;;5074754;28;19966;-88
2021/08/07 08:53:41;;;;;;;;;;;19.50;99.90;;;;;;5075105;28;19969;-88
2021/08/07 08:56:09;;;;;;;;;;;19.50;99.90;;;;;;5075226;28;19916;-88
2021/08/07 08:58:38;;;;;;;;;;;19.60;99.70;;;;;;5074653;28;19909;-88
2021/08/07 09:01:04;;;;;;;;;;;19.60;99.30;;;;;;5073007;28;19978;-88
2021/08/07 09:03:30;;;;;;;;;;;19.60;99.10;;;;;;5090101;28;20008;-88
2021/08/07 09:05:55;;;;;;;;;;;19.60;99.30;;;;;;5074566;28;19996;-88
2021/08/07 09:08:21;;;;;;;;;;;19.60;99.40;;;;;;5074621;28;20393;-88
2021/08/07 09:10:47;;;;;;;;;;;19.60;99.50;;;;;;5072838;28;19908;-88
2021/08/07 09:13:19;;;;;;;;;;;19.70;99.40;;;;;;5074450;28;19932;-88
2021/08/07 09:15:45;;;;;;;;;;;19.80;99.50;;;;;;5073057;28;20010;-88
2021/08/07 09:18:10;;;;;;;;;;;19.80;99.40;;;;;;5072833;28;20388;-89
2021/08/07 09:20:37;;;;;;;;;;;19.90;98.70;;;;;;5072582;28;19908;-88
2021/08/07 09:23:02;;;;;;;;;;;20.00;98.30;;;;;;5072921;28;19909;-88
2021/08/07 09:25:38;;;;;;;;;;;20.00;98.30;;;;;;5073049;28;19916;-88
2021/08/07 09:28:04;;;;;;;;;;;20.10;97.90;;;;;;5072769;28;19915;-88
2021/08/07 09:33:24;;;;;;;;;;;20.10;97.70;;;;;;5072630;28;19912;-88
2021/08/07 09:35:49;;;;;;;;;;;20.10;97.50;;;;;;5072676;28;19916;-88
2021/08/07 09:38:20;;;;;;;;;;;20.10;97.50;;;;;;5072816;28;20424;-88
2021/08/07 09:41:05;;;;;;;;;;;20.10;97.50;;;;;;5073218;28;19909;-88
2021/08/07 09:43:32;;;;;;;;;;;20.10;97.50;;;;;;5072461;28;20379;-88
2021/08/07 09:45:58;;;;;;;;;;;20.20;97.60;;;;;;5072665;28;20289;-89
2021/08/07 09:48:28;;;;;;;;;;;20.30;97.70;;;;;;5073671;28;19915;-88
2021/08/07 09:50:55;;;;;;;;;;;20.30;97.60;;;;;;5073679;28;19913;-88
2021/08/07 09:53:21;;;;;;;;;;;20.30;97.40;;;;;;5090028;28;19908;-88
2021/08/07 09:56:03;;;;;;;;;;;20.40;97.20;;;;;;5073742;28;20258;-88
2021/08/07 09:58:29;;;;;;;;;;;20.40;97.30;;;;;;5073751;28;19915;-88
2021/08/07 10:00:55;;;;;;;;;;;20.50;97.10;;;;;;5071988;28;19908;-88
2021/08/07 10:03:22;;;;;;;;;;;20.50;96.40;;;;;;5089279;28;19915;-88
2021/08/07 10:05:48;;;;;;;;;;;20.50;96.40;;;;;;5073434;28;19966;-88
2021/08/07 10:08:14;;;;;;;;;;;20.50;96.40;;;;;;5073267;28;19919;-88
2021/08/07 10:10:41;;;;;;;;;;;20.50;96.00;;;;;;5071755;28;20007;-88
2021/08/07 10:13:07;;;;;;;;;;;20.60;95.10;;;;;;5072035;28;19908;-88
2021/08/07 10:15:33;;;;;;;;;;;20.60;94.90;;;;;;5088836;28;19912;-88
2021/08/07 10:17:59;;;;;;;;;;;20.70;94.80;;;;;;5071826;28;19916;-88
2021/08/07 10:20:24;;;;;;;;;;;20.80;94.50;;;;;;5071715;28;19939;-88
2021/08/07 10:25:55;;;;;;;;;;;20.80;94.30;;;;;;5030937;28;19964;-88
2021/08/07 10:28:22;;;;;;;;;;;20.80;94.60;;;;;;5069325;28;20308;-89
2021/08/07 10:30:48;;;;;;;;;;;20.70;94.80;;;;;;5071185;28;20280;-88
2021/08/07 10:33:15;;;;;;;;;;;20.70;94.70;;;;;;5071949;28;19909;-88
2021/08/07 10:35:42;;;;;;;;;;;20.60;94.80;;;;;;5071956;28;19951;-88
2021/08/07 10:38:08;;;;;;;;;;;20.60;94.90;;;;;;5072245;28;20360;-88
2021/08/07 10:40:33;;;;;;;;;;;20.50;94.80;;;;;;5072401;28;19915;-88
2021/08/07 10:42:59;;;;;;;;;;;20.50;94.90;;;;;;5071486;28;20383;-88
2021/08/07 10:45:25;;;;;;;;;;;20.50;95.10;;;;;;5072948;28;20353;-88
2021/08/07 10:47:51;;;;;;;;;;;20.50;94.90;;;;;;5071354;28;19909;-88
2021/08/07 10:50:19;;;;;;;;;;;20.50;94.40;;;;;;5072265;28;19955;-89
2021/08/07 10:53:05;;;;;;;;;;;20.60;94.60;;;;;;5071021;28;19909;-88
2021/08/07 11:08:19;;;;;;;;;;;20.80;92.90;;;;;;5073170;28;20316;-88
2021/08/07 11:11:16;;;;;;;;;;;20.90;93.30;;;;;;5072672;28;19948;-88
2021/08/07 11:35:58;;;;;;;;;;;20.80;91.90;;;;;;5072324;28;19962;-87
2021/08/07 11:41:37;;;;;;;;;;;20.80;92.40;;;;;;5071974;28;19919;-87
2021/08/07 11:47:07;;;;;;;;;;;20.70;93.30;;;;;;5072215;28;20343;-88
2021/08/07 12:01:45;;;;;;;;;;;20.70;94.00;;;;;;5072100;28;20054;-88
2021/08/07 12:23:07;;;;;;;;;;;21.20;92.90;;;;;;5033172;28;20027;-87
2021/08/07 12:29:03;;;;;;;;;;;21.30;92.40;;;;;;5078361;28;19935;-88
2021/08/07 12:31:38;;;;;;;;;;;21.30;92.10;;;;;;5075298;28;19913;-87
2021/08/07 12:34:23;;;;;;;;;;;21.40;92.70;;;;;;5075133;28;19913;-88
2021/08/07 12:36:59;;;;;;;;;;;21.40;92.30;;;;;;5073981;28;19913;-88
2021/08/07 12:39:25;;;;;;;;;;;21.50;91.20;;;;;;5073286;28;19932;-87
2021/08/07 12:42:02;;;;;;;;;;;21.60;91.10;;;;;;5073783;28;19953;-88
2021/08/07 12:44:28;;;;;;;;;;;21.60;91.30;;;;;;5073927;28;19923;-87
2021/08/07 12:46:56;;;;;;;;;;;21.70;91.10;;;;;;5074948;28;19908;-87
2021/08/07 12:49:35;;;;;;;;;;;21.70;90.80;;;;;;5074501;28;20007;-87
2021/08/07 12:52:02;;;;;;;;;;;21.70;91.10;;;;;;5073441;28;19908;-87
2021/08/07 12:54:27;;;;;;;;;;;21.70;91.00;;;;;;5073298;28;19908;-88
2021/08/07 12:56:53;;;;;;;;;;;21.80;89.50;;;;;;5073522;28;19931;-87
2021/08/07 12:59:18;;;;;;;;;;;21.80;89.00;;;;;;5074255;28;20254;-87
2021/08/07 13:02:04;;;;;;;;;;;21.80;88.70;;;;;;5074807;28;19930;-88
2021/08/07 13:04:46;;;;;;;;;;;21.80;89.80;;;;;;5074800;28;20051;-87
2021/08/07 13:07:15;;;;;;;;;;;21.80;89.70;;;;;;5073383;28;19961;-87
2021/08/07 13:09:42;;;;;;;;;;;21.90;89.80;;;;;;5074541;28;19912;-87
2021/08/07 13:12:07;;;;;;;;;;;21.90;88.40;;;;;;5074683;28;19962;-88
2021/08/07 13:14:33;;;;;;;;;;;21.90;86.10;;;;;;5073366;28;19912;-87
2021/08/07 13:16:59;;;;;;;;;;;21.90;85.80;;;;;;5074518;28;20369;-87
2021/08/07 13:19:26;;;;;;;;;;;21.90;84.60;;;;;;5072496;28;19948;-87
2021/08/07 13:21:53;;;;;;;;;;;21.90;84.80;;;;;;5073512;28;19999;-88
2021/08/07 13:24:27;;;;;;;;;;;21.90;85.10;;;;;;5074164;28;19959;-87
2021/08/07 13:26:53;;;;;;;;;;;22.00;85.30;;;;;;5074404;28;19915;-87
2021/08/07 13:29:19;;;;;;;;;;;22.00;84.50;;;;;;5090152;28;20006;-88
2021/08/07 13:31:45;;;;;;;;;;;22.00;83.70;;;;;;5073237;28;19961;-87
2021/08/07 13:34:10;;;;;;;;;;;22.00;82.80;;;;;;5072824;28;19962;-88
2021/08/07 13:36:36;;;;;;;;;;;22.00;83.50;;;;;;5072865;28;19936;-88
2021/08/07 13:39:01;;;;;;;;;;;22.00;83.50;;;;;;5072346;28;19916;-88
2021/08/07 13:41:27;;;;;;;;;;;22.00;84.60;;;;;;5072752;28;19909;-88
2021/08/07 13:43:52;;;;;;;;;;;22.10;84.70;;;;;;5072746;28;19916;-88
2021/08/07 13:46:18;;;;;;;;;;;22.10;83.90;;;;;;5072595;28;20015;-88
2021/08/07 13:48:43;;;;;;;;;;;22.20;82.40;;;;;;5072526;28;19996;-88
2021/08/07 13:51:09;;;;;;;;;;;22.20;82.60;;;;;;5071964;28;19909;-88
2021/08/07 13:53:34;;;;;;;;;;;22.30;81.60;;;;;;5073842;28;19908;-88
2021/08/07 13:56:00;;;;;;;;;;;22.30;80.60;;;;;;5089311;28;20483;-87
2021/08/07 13:58:26;;;;;;;;;;;22.40;79.80;;;;;;5072302;28;19950;-87
2021/08/07 14:00:51;;;;;;;;;;;22.40;79.20;;;;;;5071954;28;19948;-88
2021/08/07 14:03:19;;;;;;;;;;;22.50;78.60;;;;;;5073741;28;19912;-88
2021/08/07 14:05:44;;;;;;;;;;;22.50;79.30;;;;;;5073540;28;19909;-88
2021/08/07 14:08:10;;;;;;;;;;;22.60;78.40;;;;;;5072148;28;20312;-87
2021/08/07 14:10:37;;;;;;;;;;;22.50;78.90;;;;;;5071657;28;20364;-88
2021/08/07 14:13:02;;;;;;;;;;;22.60;79.60;;;;;;5072354;28;19958;-88
2021/08/07 14:15:28;;;;;;;;;;;22.70;79.10;;;;;;5072307;28;19912;-88
2021/08/07 14:17:53;;;;;;;;;;;22.80;78.90;;;;;;5072010;28;19915;-87
2021/08/07 14:20:19;;;;;;;;;;;22.80;78.00;;;;;;5071644;28;19909;-87
2021/08/07 14:22:44;;;;;;;;;;;22.70;77.50;;;;;;5071684;28;19915;-87
2021/08/07 14:25:10;;;;;;;;;;;22.70;78.00;;;;;;5071936;28;19913;-88
2021/08/07 14:27:36;;;;;;;;;;;22.60;78.90;;;;;;5072347;28;19912;-88
2021/08/07 14:30:02;;;;;;;;;;;22.60;78.50;;;;;;5073065;28;20361;-88
2021/08/07 14:32:27;;;;;;;;;;;22.70;79.70;;;;;;5071537;28;20012;-88
2021/08/07 14:34:54;;;;;;;;;;;22.80;79.50;;;;;;5072080;28;19919;-87
2021/08/07 14:37:19;;;;;;;;;;;23.00;76.40;;;;;;5073482;28;19909;-88
2021/08/07 14:39:45;;;;;;;;;;;23.30;75.00;;;;;;5087996;28;20388;-87
2021/08/07 14:42:12;;;;;;;;;;;23.80;73.80;;;;;;5088672;28;20003;-87
2021/08/07 14:44:38;;;;;;;;;;;24.00;72.80;;;;;;5071647;28;20559;-88
2021/08/07 14:47:03;;;;;;;;;;;24.20;72.20;;;;;;5071622;28;20030;-88
2021/08/07 14:49:29;;;;;;;;;;;24.20;72.50;;;;;;5071124;28;19909;-87
2021/08/07 14:51:56;;;;;;;;;;;24.00;72.80;;;;;;5071651;28;20418;-88
2021/08/07 14:54:22;;;;;;;;;;;23.80;74.30;;;;;;5071907;28;19916;-87
2021/08/07 14:56:47;;;;;;;;;;;23.50;74.50;;;;;;5088425;28;19912;-87
2021/08/07 14:59:13;;;;;;;;;;;23.20;75.20;;;;;;5070797;28;19912;-88
2021/08/07 15:01:38;;;;;;;;;;;23.00;75.20;;;;;;5088512;28;19908;-88
2021/08/07 15:04:04;;;;;;;;;;;22.80;78.20;;;;;;5071461;28;19908;-88
2021/08/07 15:06:29;;;;;;;;;;;22.70;82.00;;;;;;5072530;28;20010;-88
2021/08/07 15:08:55;;;;;;;;;;;22.60;82.60;;;;;;5070637;28;19909;-88
2021/08/07 15:11:22;;;;;;;;;;;22.60;83.20;;;;;;5072463;28;19909;-87
2021/08/07 15:13:47;;;;;;;;;;;22.50;82.60;;;;;;5071410;28;19909;-87
2021/08/07 15:16:13;;;;;;;;;;;22.60;82.60;;;;;;5071196;28;19916;-87
2021/08/07 15:18:38;;;;;;;;;;;22.60;82.10;;;;;;5088078;28;19909;-88
2021/08/07 15:21:04;;;;;;;;;;;22.60;82.30;;;;;;5071884;28;20333;-88
2021/08/07 15:23:29;;;;;;;;;;;22.60;81.70;;;;;;5071159;28;19963;-87
2021/08/07 15:25:55;;;;;;;;;;;22.70;81.30;;;;;;5072440;28;19908;-87
2021/08/07 15:28:21;;;;;;;;;;;22.60;82.10;;;;;;5087953;28;20273;-88
2021/08/07 15:30:46;;;;;;;;;;;22.60;79.20;;;;;;5071721;28;20384;-88
2021/08/07 15:33:12;;;;;;;;;;;22.60;79.10;;;;;;5071317;28;20094;-87
2021/08/07 15:35:38;;;;;;;;;;;22.50;79.50;;;;;;5071052;28;20368;-87